sensor_id;sensor_type;location;lat;lon;timestamp;noise_LAeq;noise_LA_min;noise_LA_max;noise_LA01;noise_LA95
57092;Laerm;42968;52.094;4.328;2022-10-17T00:00:43;56.32;39.81;75.03;;
57092;Laerm;42968;52.094;4.328;2022-10-17T00:03:08;55.51;40.53;74.85;;
57092;Laerm;42968;52.094;4.328;2022-10-17T00:05:37;51.30;39.58;70.94;;
57092;Laerm;42968;52.094;4.328;2022-10-17T00:08:03;59.98;39.08;78.53;;
57092;Laerm;42968;52.094;4.328;2022-10-17T00:10:28;54.42;40.03;69.56;;
57092;Laerm;42968;52.094;4.328;2022-10-17T00:12:53;43.41;38.74;51.84;;
57092;Laerm;42968;52.094;4.328;2022-10-17T00:15:19;44.67;39.70;56.23;;
57092;Laerm;42968;52.094;4.328;2022-10-17T00:17:45;54.99;39.81;70.79;;
57092;Laerm;42968;52.094;4.328;2022-10-17T00:20:10;42.12;39.70;44.90;;
57092;Laerm;42968;52.094;4.328;2022-10-17T00:22:36;55.41;39.81;72.34;;
57092;Laerm;42968;52.094;4.328;2022-10-17T00:25:01;42.05;39.08;46.95;;
57092;Laerm;42968;52.094;4.328;2022-10-17T00:27:26;54.34;39.58;70.30;;
57092;Laerm;42968;52.094;4.328;2022-10-17T00:29:52;62.99;39.58;83.66;;
57092;Laerm;42968;52.094;4.328;2022-10-17T00:32:17;54.34;40.53;77.86;;
57092;Laerm;42968;52.094;4.328;2022-10-17T00:34:43;59.32;40.03;72.15;;
57092;Laerm;42968;52.094;4.328;2022-10-17T00:37:08;42.54;39.46;49.80;;
57092;Laerm;42968;52.094;4.328;2022-10-17T00:39:34;42.56;39.70;48.83;;
57092;Laerm;42968;52.094;4.328;2022-10-17T00:41:59;52.30;40.53;69.71;;
57092;Laerm;42968;52.094;4.328;2022-10-17T00:46:53;42.27;39.81;45.62;;
57092;Laerm;42968;52.094;4.328;2022-10-17T00:49:19;42.86;40.03;48.16;;
57092;Laerm;42968;52.094;4.328;2022-10-17T00:54:10;51.66;40.03;68.54;;
57092;Laerm;42968;52.094;4.328;2022-10-17T00:56:36;42.75;39.34;50.15;;
57092;Laerm;42968;52.094;4.328;2022-10-17T00:59:04;42.17;39.34;48.67;;
57092;Laerm;42968;52.094;4.328;2022-10-17T01:01:31;52.84;39.21;72.33;;
57092;Laerm;42968;52.094;4.328;2022-10-17T01:03:56;42.58;39.46;55.53;;
57092;Laerm;42968;52.094;4.328;2022-10-17T01:06:21;42.09;38.81;48.71;;
57092;Laerm;42968;52.094;4.328;2022-10-17T01:08:47;51.01;39.46;67.54;;
57092;Laerm;42968;52.094;4.328;2022-10-17T01:11:17;57.29;39.70;74.03;;
57092;Laerm;42968;52.094;4.328;2022-10-17T01:13:51;54.23;38.95;67.60;;
57092;Laerm;42968;52.094;4.328;2022-10-17T01:16:34;42.01;39.21;48.21;;
57092;Laerm;42968;52.094;4.328;2022-10-17T01:19:12;51.70;38.81;67.56;;
57092;Laerm;42968;52.094;4.328;2022-10-17T01:32:35;55.40;39.58;70.41;;
57092;Laerm;42968;52.094;4.328;2022-10-17T01:35:07;46.92;39.70;65.56;;
57092;Laerm;42968;52.094;4.328;2022-10-17T01:40:08;50.85;39.08;67.01;;
57092;Laerm;42968;52.094;4.328;2022-10-17T01:42:36;49.20;39.08;64.95;;
57092;Laerm;42968;52.094;4.328;2022-10-17T01:47:34;54.32;39.46;70.86;;
57092;Laerm;42968;52.094;4.328;2022-10-17T01:50:02;56.51;40.23;73.26;;
57092;Laerm;42968;52.094;4.328;2022-10-17T01:52:35;42.51;39.58;44.69;;
57092;Laerm;42968;52.094;4.328;2022-10-17T01:55:08;50.02;40.03;67.82;;
57092;Laerm;42968;52.094;4.328;2022-10-17T01:57:36;42.55;40.23;44.31;;
57092;Laerm;42968;52.094;4.328;2022-10-17T02:00:03;54.03;40.53;72.24;;
57092;Laerm;42968;52.094;4.328;2022-10-17T02:02:30;44.31;40.03;61.29;;
57092;Laerm;42968;52.094;4.328;2022-10-17T02:04:56;55.30;40.62;70.75;;
57092;Laerm;42968;52.094;4.328;2022-10-17T02:07:21;53.52;40.98;70.06;;
57092;Laerm;42968;52.094;4.328;2022-10-17T02:09:47;52.74;41.06;70.34;;
57092;Laerm;42968;52.094;4.328;2022-10-17T02:13:14;50.47;40.98;68.56;;
57092;Laerm;42968;52.094;4.328;2022-10-17T02:15:27;53.97;40.98;68.43;;
57092;Laerm;42968;52.094;4.328;2022-10-17T02:20:24;53.59;40.53;73.23;;
57092;Laerm;42968;52.094;4.328;2022-10-17T02:28:13;44.06;40.53;55.91;;
57092;Laerm;42968;52.094;4.328;2022-10-17T02:30:43;53.56;41.06;69.26;;
57092;Laerm;42968;52.094;4.328;2022-10-17T02:33:12;53.69;40.62;72.95;;
57092;Laerm;42968;52.094;4.328;2022-10-17T02:35:40;53.42;41.06;72.71;;
57092;Laerm;42968;52.094;4.328;2022-10-17T02:38:07;52.14;40.43;68.92;;
57092;Laerm;42968;52.094;4.328;2022-10-17T02:40:35;53.61;41.38;67.66;;
57092;Laerm;42968;52.094;4.328;2022-10-17T02:43:01;51.90;41.11;67.74;;
57092;Laerm;42968;52.094;4.328;2022-10-17T02:45:27;55.12;41.30;67.51;;
57092;Laerm;42968;52.094;4.328;2022-10-17T02:48:01;59.96;41.14;76.68;;
57092;Laerm;42968;52.094;4.328;2022-10-17T02:53:18;52.18;40.89;71.86;;
57092;Laerm;42968;52.094;4.328;2022-10-17T02:55:50;59.40;41.06;74.23;;
57092;Laerm;42968;52.094;4.328;2022-10-17T02:58:21;59.73;41.30;74.97;;
57092;Laerm;42968;52.094;4.328;2022-10-17T03:00:48;57.95;41.89;72.50;;
57092;Laerm;42968;52.094;4.328;2022-10-17T03:03:18;60.13;41.96;74.00;;
57092;Laerm;42968;52.094;4.328;2022-10-17T03:05:44;56.38;41.38;72.48;;
57092;Laerm;42968;52.094;4.328;2022-10-17T03:08:09;58.09;41.22;71.65;;
57092;Laerm;42968;52.094;4.328;2022-10-17T03:10:35;60.45;41.96;74.16;;
57092;Laerm;42968;52.094;4.328;2022-10-17T03:13:01;58.28;42.47;76.51;;
57092;Laerm;42968;52.094;4.328;2022-10-17T03:15:26;58.84;42.16;73.26;;
57092;Laerm;42968;52.094;4.328;2022-10-17T03:17:51;61.12;41.89;76.98;;
57092;Laerm;42968;52.094;4.328;2022-10-17T03:20:16;60.19;42.65;75.77;;
57092;Laerm;42968;52.094;4.328;2022-10-17T03:22:42;59.10;43.09;73.95;;
57092;Laerm;42968;52.094;4.328;2022-10-17T03:25:07;62.39;44.65;77.35;;
57092;Laerm;42968;52.094;4.328;2022-10-17T03:27:33;60.48;42.76;74.62;;
57092;Laerm;42968;52.094;4.328;2022-10-17T03:29:58;60.70;42.71;74.22;;
57092;Laerm;42968;52.094;4.328;2022-10-17T03:32:23;64.33;45.27;75.44;;
57092;Laerm;42968;52.094;4.328;2022-10-17T03:34:49;59.26;42.71;73.29;;
57092;Laerm;42968;52.094;4.328;2022-10-17T03:37:14;64.38;44.15;80.97;;
57092;Laerm;42968;52.094;4.328;2022-10-17T03:39:39;64.01;44.23;76.37;;
57092;Laerm;42968;52.094;4.328;2022-10-17T03:42:04;64.81;43.72;78.87;;
57092;Laerm;42968;52.094;4.328;2022-10-17T03:44:30;63.22;43.58;74.89;;
57092;Laerm;42968;52.094;4.328;2022-10-17T03:46:56;62.53;43.90;75.92;;
57092;Laerm;42968;52.094;4.328;2022-10-17T03:49:21;62.77;44.90;73.62;;
57092;Laerm;42968;52.094;4.328;2022-10-17T03:51:47;64.23;44.31;79.75;;
57092;Laerm;42968;52.094;4.328;2022-10-17T03:54:15;63.77;45.36;76.13;;
57092;Laerm;42968;52.094;4.328;2022-10-17T03:56:40;64.08;45.83;83.50;;
57092;Laerm;42968;52.094;4.328;2022-10-17T03:59:06;65.26;45.07;78.28;;
57092;Laerm;42968;52.094;4.328;2022-10-17T04:01:31;63.93;44.47;78.84;;
57092;Laerm;42968;52.094;4.328;2022-10-17T04:03:57;65.76;48.81;78.76;;
57092;Laerm;42968;52.094;4.328;2022-10-17T04:06:22;65.17;44.58;76.83;;
57092;Laerm;42968;52.094;4.328;2022-10-17T04:08:48;62.77;46.30;74.15;;
57092;Laerm;42968;52.094;4.328;2022-10-17T04:11:14;64.96;46.95;73.95;;
57092;Laerm;42968;52.094;4.328;2022-10-17T04:13:40;67.34;46.28;80.43;;
57092;Laerm;42968;52.094;4.328;2022-10-17T04:16:07;65.90;46.48;77.15;;
57092;Laerm;42968;52.094;4.328;2022-10-17T04:18:33;66.51;49.50;80.87;;
57092;Laerm;42968;52.094;4.328;2022-10-17T04:21:02;66.98;48.94;81.38;;
57092;Laerm;42968;52.094;4.328;2022-10-17T04:23:27;65.80;46.23;80.10;;
57092;Laerm;42968;52.094;4.328;2022-10-17T04:25:57;67.10;46.25;79.41;;
57092;Laerm;42968;52.094;4.328;2022-10-17T04:28:23;67.85;49.87;75.65;;
57092;Laerm;42968;52.094;4.328;2022-10-17T04:30:58;68.89;49.81;81.09;;
57092;Laerm;42968;52.094;4.328;2022-10-17T04:33:24;67.58;48.60;83.81;;
57092;Laerm;42968;52.094;4.328;2022-10-17T04:35:59;67.03;47.55;78.35;;
57092;Laerm;42968;52.094;4.328;2022-10-17T04:38:24;67.67;47.48;76.92;;
57092;Laerm;42968;52.094;4.328;2022-10-17T04:40:50;68.62;53.56;76.53;;
57092;Laerm;42968;52.094;4.328;2022-10-17T04:43:15;69.26;49.71;79.20;;
57092;Laerm;42968;52.094;4.328;2022-10-17T04:45:40;66.88;50.88;76.51;;
57092;Laerm;42968;52.094;4.328;2022-10-17T04:48:06;68.63;50.41;78.41;;
57092;Laerm;42968;52.094;4.328;2022-10-17T04:50:31;68.49;51.70;79.42;;
57092;Laerm;42968;52.094;4.328;2022-10-17T04:52:56;69.13;48.45;77.57;;
57092;Laerm;42968;52.094;4.328;2022-10-17T04:55:23;69.34;57.91;77.74;;
57092;Laerm;42968;52.094;4.328;2022-10-17T04:57:48;69.63;48.75;77.42;;
57092;Laerm;42968;52.094;4.328;2022-10-17T05:00:19;68.96;47.96;78.61;;
57092;Laerm;42968;52.094;4.328;2022-10-17T05:02:44;67.76;51.72;78.41;;
57092;Laerm;42968;52.094;4.328;2022-10-17T05:05:10;69.28;49.08;80.81;;
57092;Laerm;42968;52.094;4.328;2022-10-17T05:07:38;70.22;53.33;78.40;;
57092;Laerm;42968;52.094;4.328;2022-10-17T05:10:07;68.88;50.18;77.75;;
57092;Laerm;42968;52.094;4.328;2022-10-17T05:12:32;70.96;51.30;84.74;;
57092;Laerm;42968;52.094;4.328;2022-10-17T05:14:58;69.26;51.03;78.28;;
57092;Laerm;42968;52.094;4.328;2022-10-17T05:17:23;69.76;54.98;78.33;;
57092;Laerm;42968;52.094;4.328;2022-10-17T05:19:48;68.66;55.39;80.29;;
57092;Laerm;42968;52.094;4.328;2022-10-17T05:22:14;70.10;52.46;79.21;;
57092;Laerm;42968;52.094;4.328;2022-10-17T05:24:39;68.76;50.68;81.31;;
57092;Laerm;42968;52.094;4.328;2022-10-17T05:27:04;68.92;54.01;77.78;;
57092;Laerm;42968;52.094;4.328;2022-10-17T05:29:29;69.38;56.38;78.52;;
57092;Laerm;42968;52.094;4.328;2022-10-17T05:31:55;69.81;49.30;80.00;;
57092;Laerm;42968;52.094;4.328;2022-10-17T05:34:20;68.93;51.63;80.91;;
57092;Laerm;42968;52.094;4.328;2022-10-17T05:36:45;70.04;51.14;78.71;;
57092;Laerm;42968;52.094;4.328;2022-10-17T05:39:11;68.43;54.58;77.40;;
57092;Laerm;42968;52.094;4.328;2022-10-17T05:41:43;68.73;52.46;76.76;;
57092;Laerm;42968;52.094;4.328;2022-10-17T05:44:08;70.66;52.98;82.03;;
57092;Laerm;42968;52.094;4.328;2022-10-17T05:46:34;69.82;49.07;78.35;;
57092;Laerm;42968;52.094;4.328;2022-10-17T05:48:59;71.45;59.68;82.05;;
57092;Laerm;42968;52.094;4.328;2022-10-17T05:51:27;68.77;51.83;76.16;;
57092;Laerm;42968;52.094;4.328;2022-10-17T05:53:52;70.68;52.01;78.26;;
57092;Laerm;42968;52.094;4.328;2022-10-17T05:56:17;69.50;54.25;80.82;;
57092;Laerm;42968;52.094;4.328;2022-10-17T05:58:44;69.85;52.92;75.92;;
57092;Laerm;42968;52.094;4.328;2022-10-17T06:01:12;70.35;54.48;81.91;;
57092;Laerm;42968;52.094;4.328;2022-10-17T06:03:38;71.61;52.33;87.60;;
57092;Laerm;42968;52.094;4.328;2022-10-17T06:06:13;71.82;50.46;83.21;;
57092;Laerm;42968;52.094;4.328;2022-10-17T06:08:38;70.76;49.14;79.27;;
57092;Laerm;42968;52.094;4.328;2022-10-17T06:11:04;71.30;52.15;77.88;;
57092;Laerm;42968;52.094;4.328;2022-10-17T06:13:30;71.78;54.32;85.24;;
57092;Laerm;42968;52.094;4.328;2022-10-17T06:15:55;70.21;57.41;80.77;;
57092;Laerm;42968;52.094;4.328;2022-10-17T06:18:21;70.12;54.30;78.57;;
57092;Laerm;42968;52.094;4.328;2022-10-17T06:20:49;69.47;56.91;79.33;;
57092;Laerm;42968;52.094;4.328;2022-10-17T06:23:14;69.25;57.61;77.31;;
57092;Laerm;42968;52.094;4.328;2022-10-17T06:25:39;70.35;58.71;80.37;;
57092;Laerm;42968;52.094;4.328;2022-10-17T06:28:05;69.94;54.09;78.04;;
57092;Laerm;42968;52.094;4.328;2022-10-17T06:30:30;70.29;59.29;77.94;;
57092;Laerm;42968;52.094;4.328;2022-10-17T06:32:55;70.57;61.06;80.22;;
57092;Laerm;42968;52.094;4.328;2022-10-17T06:35:21;69.33;51.77;77.31;;
57092;Laerm;42968;52.094;4.328;2022-10-17T06:37:46;70.69;57.81;78.71;;
57092;Laerm;42968;52.094;4.328;2022-10-17T06:40:12;72.33;57.13;79.43;;
57092;Laerm;42968;52.094;4.328;2022-10-17T06:42:39;70.69;54.95;80.48;;
57092;Laerm;42968;52.094;4.328;2022-10-17T06:45:08;70.29;59.90;77.56;;
57092;Laerm;42968;52.094;4.328;2022-10-17T06:47:34;70.00;56.29;78.26;;
57092;Laerm;42968;52.094;4.328;2022-10-17T06:49:59;70.51;53.34;84.07;;
57092;Laerm;42968;52.094;4.328;2022-10-17T06:52:24;71.88;56.07;85.58;;
57092;Laerm;42968;52.094;4.328;2022-10-17T06:54:50;81.88;57.52;103.00;;
57092;Laerm;42968;52.094;4.328;2022-10-17T06:57:18;70.82;51.71;81.34;;
57092;Laerm;42968;52.094;4.328;2022-10-17T06:59:43;70.35;56.53;78.57;;
57092;Laerm;42968;52.094;4.328;2022-10-17T07:02:09;70.68;54.71;81.42;;
57092;Laerm;42968;52.094;4.328;2022-10-17T07:04:34;71.26;56.89;83.20;;
57092;Laerm;42968;52.094;4.328;2022-10-17T07:07:00;70.38;55.38;80.43;;
57092;Laerm;42968;52.094;4.328;2022-10-17T07:09:27;71.23;49.40;78.98;;
57092;Laerm;42968;52.094;4.328;2022-10-17T07:11:55;71.96;60.66;81.74;;
57092;Laerm;42968;52.094;4.328;2022-10-17T07:14:21;70.22;49.80;79.89;;
57092;Laerm;42968;52.094;4.328;2022-10-17T07:16:46;70.35;50.92;79.12;;
57092;Laerm;42968;52.094;4.328;2022-10-17T07:19:11;70.92;57.62;78.38;;
57092;Laerm;42968;52.094;4.328;2022-10-17T07:21:38;70.69;53.23;81.85;;
57092;Laerm;42968;52.094;4.328;2022-10-17T07:24:03;69.15;52.79;79.11;;
57092;Laerm;42968;52.094;4.328;2022-10-17T07:26:29;68.86;53.03;81.69;;
57092;Laerm;42968;52.094;4.328;2022-10-17T07:28:55;70.11;56.95;77.40;;
57092;Laerm;42968;52.094;4.328;2022-10-17T07:31:20;70.34;50.32;81.14;;
57092;Laerm;42968;52.094;4.328;2022-10-17T07:33:46;70.94;53.59;78.70;;
57092;Laerm;42968;52.094;4.328;2022-10-17T07:36:12;70.73;54.65;81.38;;
57092;Laerm;42968;52.094;4.328;2022-10-17T07:38:38;71.21;53.78;81.81;;
57092;Laerm;42968;52.094;4.328;2022-10-17T07:41:04;71.89;54.90;78.86;;
57092;Laerm;42968;52.094;4.328;2022-10-17T07:43:30;72.29;59.33;80.15;;
57092;Laerm;42968;52.094;4.328;2022-10-17T07:45:55;72.35;59.72;80.42;;
57092;Laerm;42968;52.094;4.328;2022-10-17T07:48:22;71.74;57.46;79.30;;
57092;Laerm;42968;52.094;4.328;2022-10-17T07:50:47;73.79;59.41;81.43;;
57092;Laerm;42968;52.094;4.328;2022-10-17T07:53:12;74.92;58.66;85.97;;
57092;Laerm;42968;52.094;4.328;2022-10-17T07:55:38;74.15;57.82;80.51;;
57092;Laerm;42968;52.094;4.328;2022-10-17T07:58:04;75.96;59.96;83.46;;
57092;Laerm;42968;52.094;4.328;2022-10-17T08:00:29;75.55;58.61;85.50;;
57092;Laerm;42968;52.094;4.328;2022-10-17T08:02:55;73.97;62.26;82.95;;
57092;Laerm;42968;52.094;4.328;2022-10-17T08:05:20;74.65;61.46;80.34;;
57092;Laerm;42968;52.094;4.328;2022-10-17T08:07:45;74.39;58.02;81.10;;
57092;Laerm;42968;52.094;4.328;2022-10-17T08:10:11;74.98;60.67;84.40;;
57092;Laerm;42968;52.094;4.328;2022-10-17T08:12:38;76.02;59.38;84.14;;
57092;Laerm;42968;52.094;4.328;2022-10-17T08:15:03;75.87;59.49;84.70;;
57092;Laerm;42968;52.094;4.328;2022-10-17T08:17:29;77.13;62.04;84.85;;
57092;Laerm;42968;52.094;4.328;2022-10-17T08:19:55;75.73;58.78;83.26;;
57092;Laerm;42968;52.094;4.328;2022-10-17T08:22:22;78.00;56.01;96.15;;
57092;Laerm;42968;52.094;4.328;2022-10-17T08:24:48;75.29;59.91;84.47;;
57092;Laerm;42968;52.094;4.328;2022-10-17T08:27:13;75.75;56.10;85.01;;
57092;Laerm;42968;52.094;4.328;2022-10-17T08:29:39;76.06;53.97;84.34;;
57092;Laerm;42968;52.094;4.328;2022-10-17T08:32:04;75.62;54.12;84.94;;
57092;Laerm;42968;52.094;4.328;2022-10-17T08:34:30;74.54;55.30;83.77;;
57092;Laerm;42968;52.094;4.328;2022-10-17T08:36:55;74.00;55.55;83.38;;
57092;Laerm;42968;52.094;4.328;2022-10-17T08:39:21;75.02;53.00;83.76;;
57092;Laerm;42968;52.094;4.328;2022-10-17T08:44:26;75.28;62.13;83.17;;
57092;Laerm;42968;52.094;4.328;2022-10-17T08:46:57;73.16;55.49;80.85;;
57092;Laerm;42968;52.094;4.328;2022-10-17T08:49:43;74.92;56.21;81.49;;
57092;Laerm;42968;52.094;4.328;2022-10-17T08:52:24;74.53;61.90;82.17;;
57092;Laerm;42968;52.094;4.328;2022-10-17T08:54:53;73.73;56.39;84.39;;
57092;Laerm;42968;52.094;4.328;2022-10-17T08:57:19;74.29;60.80;81.11;;
57092;Laerm;42968;52.094;4.328;2022-10-17T08:59:44;71.59;54.74;79.95;;
57092;Laerm;42968;52.094;4.328;2022-10-17T09:02:34;75.10;57.90;87.44;;
57092;Laerm;42968;52.094;4.328;2022-10-17T09:10:40;74.28;54.23;82.32;;
57092;Laerm;42968;52.094;4.328;2022-10-17T09:12:48;74.46;59.58;82.08;;
57092;Laerm;42968;52.094;4.328;2022-10-17T09:25:16;74.04;54.14;83.04;;
57092;Laerm;42968;52.094;4.328;2022-10-17T09:27:50;74.82;56.04;83.33;;
57092;Laerm;42968;52.094;4.328;2022-10-17T09:32:45;73.62;57.66;83.40;;
57092;Laerm;42968;52.094;4.328;2022-10-17T09:35:14;75.58;53.96;85.03;;
57092;Laerm;42968;52.094;4.328;2022-10-17T09:37:40;74.00;54.50;83.63;;
57092;Laerm;42968;52.094;4.328;2022-10-17T09:40:06;74.08;52.47;83.50;;
57092;Laerm;42968;52.094;4.328;2022-10-17T09:42:32;73.07;54.34;82.57;;
57092;Laerm;42968;52.094;4.328;2022-10-17T09:50:20;74.12;53.54;83.77;;
57092;Laerm;42968;52.094;4.328;2022-10-17T09:52:46;75.53;59.82;86.90;;
57092;Laerm;42968;52.094;4.328;2022-10-17T09:55:21;74.78;54.81;83.58;;
57092;Laerm;42968;52.094;4.328;2022-10-17T09:57:52;74.69;53.89;83.90;;
57092;Laerm;42968;52.094;4.328;2022-10-17T10:00:22;73.13;53.98;81.74;;
57092;Laerm;42968;52.094;4.328;2022-10-17T10:02:47;75.85;57.09;85.83;;
57092;Laerm;42968;52.094;4.328;2022-10-17T10:05:17;74.94;57.12;85.13;;
57092;Laerm;42968;52.094;4.328;2022-10-17T10:07:45;75.37;56.21;85.33;;
57092;Laerm;42968;52.094;4.328;2022-10-17T10:10:25;75.32;57.01;84.46;;
57092;Laerm;42968;52.094;4.328;2022-10-17T10:13:15;75.94;55.53;83.79;;
57092;Laerm;42968;52.094;4.328;2022-10-17T10:15:45;74.29;56.22;83.02;;
57092;Laerm;42968;52.094;4.328;2022-10-17T10:18:28;74.37;53.63;82.65;;
57092;Laerm;42968;52.094;4.328;2022-10-17T10:21:01;75.17;52.63;82.91;;
57092;Laerm;42968;52.094;4.328;2022-10-17T10:23:28;73.95;57.09;83.03;;
57092;Laerm;42968;52.094;4.328;2022-10-17T10:25:54;74.69;51.76;85.71;;
57092;Laerm;42968;52.094;4.328;2022-10-17T10:28:21;73.41;54.20;83.77;;
57092;Laerm;42968;52.094;4.328;2022-10-17T10:30:48;72.69;54.10;81.55;;
57092;Laerm;42968;52.094;4.328;2022-10-17T10:33:17;73.05;50.85;83.15;;
57092;Laerm;42968;52.094;4.328;2022-10-17T10:35:43;74.12;59.07;82.55;;
57092;Laerm;42968;52.094;4.328;2022-10-17T10:38:15;72.77;57.00;80.99;;
57092;Laerm;42968;52.094;4.328;2022-10-17T10:40:51;74.29;49.40;83.73;;
57092;Laerm;42968;52.094;4.328;2022-10-17T10:43:23;73.50;52.88;82.85;;
57092;Laerm;42968;52.094;4.328;2022-10-17T10:45:51;71.64;48.92;79.93;;
57092;Laerm;42968;52.094;4.328;2022-10-17T10:50:45;72.78;58.26;80.32;;
57092;Laerm;42968;52.094;4.328;2022-10-17T10:53:24;72.92;58.85;82.02;;
57092;Laerm;42968;52.094;4.328;2022-10-17T10:58:20;71.46;49.64;83.09;;
57092;Laerm;42968;52.094;4.328;2022-10-17T11:00:46;72.41;47.70;84.81;;
57092;Laerm;42968;52.094;4.328;2022-10-17T11:03:15;72.41;53.09;80.80;;
57092;Laerm;42968;52.094;4.328;2022-10-17T11:05:44;72.55;54.81;83.07;;
57092;Laerm;42968;52.094;4.328;2022-10-17T11:08:14;71.53;58.99;82.28;;
57092;Laerm;42968;52.094;4.328;2022-10-17T11:13:24;71.51;52.22;82.34;;
57092;Laerm;42968;52.094;4.328;2022-10-17T11:15:58;73.31;51.60;82.06;;
57092;Laerm;42968;52.094;4.328;2022-10-17T11:18:27;71.64;57.52;80.47;;
57092;Laerm;42968;52.094;4.328;2022-10-17T11:20:57;70.81;49.74;82.81;;
57092;Laerm;42968;52.094;4.328;2022-10-17T11:23:29;72.84;51.77;80.21;;
57092;Laerm;42968;52.094;4.328;2022-10-17T11:26:01;70.66;49.92;79.98;;
57092;Laerm;42968;52.094;4.328;2022-10-17T11:28:28;71.71;57.75;82.65;;
57092;Laerm;42968;52.094;4.328;2022-10-17T11:31:01;71.41;52.77;78.82;;
57092;Laerm;42968;52.094;4.328;2022-10-17T11:33:38;73.19;56.69;84.29;;
57092;Laerm;42968;52.094;4.328;2022-10-17T11:36:07;71.22;53.04;78.67;;
57092;Laerm;42968;52.094;4.328;2022-10-17T11:41:23;71.99;49.92;81.47;;
57092;Laerm;42968;52.094;4.328;2022-10-17T11:43:52;71.83;55.68;83.84;;
57092;Laerm;42968;52.094;4.328;2022-10-17T11:46:23;71.89;59.37;83.09;;
57092;Laerm;42968;52.094;4.328;2022-10-17T11:49:05;71.16;55.67;82.41;;
57092;Laerm;42968;52.094;4.328;2022-10-17T11:51:35;70.73;50.87;88.04;;
57092;Laerm;42968;52.094;4.328;2022-10-17T11:54:11;71.58;58.16;88.68;;
57092;Laerm;42968;52.094;4.328;2022-10-17T11:56:47;71.36;56.82;80.34;;
57092;Laerm;42968;52.094;4.328;2022-10-17T12:02:08;70.59;51.76;80.94;;
57092;Laerm;42968;52.094;4.328;2022-10-17T12:09:48;70.22;58.46;77.62;;
57092;Laerm;42968;52.094;4.328;2022-10-17T12:12:24;71.93;56.16;81.52;;
57092;Laerm;42968;52.094;4.328;2022-10-17T12:14:50;71.47;54.57;79.91;;
57092;Laerm;42968;52.094;4.328;2022-10-17T12:19:47;71.58;53.41;81.06;;
57092;Laerm;42968;52.094;4.328;2022-10-17T12:22:19;70.43;52.83;80.93;;
57092;Laerm;42968;52.094;4.328;2022-10-17T12:24:53;72.39;59.05;89.88;;
57092;Laerm;42968;52.094;4.328;2022-10-17T12:32:31;70.68;51.09;78.21;;
57092;Laerm;42968;52.094;4.328;2022-10-17T12:34:57;70.90;50.05;83.41;;
57092;Laerm;42968;52.094;4.328;2022-10-17T12:42:50;71.17;52.08;83.09;;
57092;Laerm;42968;52.094;4.328;2022-10-17T12:48:00;71.73;54.51;83.60;;
57092;Laerm;42968;52.094;4.328;2022-10-17T12:53:10;71.14;54.36;86.15;;
57092;Laerm;42968;52.094;4.328;2022-10-17T12:55:38;70.30;58.62;79.10;;
57092;Laerm;42968;52.094;4.328;2022-10-17T12:58:04;70.69;49.89;79.14;;
57092;Laerm;42968;52.094;4.328;2022-10-17T13:00:40;70.89;50.68;78.27;;
57092;Laerm;42968;52.094;4.328;2022-10-17T13:03:41;69.85;49.66;78.06;;
57092;Laerm;42968;52.094;4.328;2022-10-17T13:05:59;70.54;54.47;84.52;;
57092;Laerm;42968;52.094;4.328;2022-10-17T13:10:51;70.41;53.33;79.55;;
57092;Laerm;42968;52.094;4.328;2022-10-17T13:13:19;83.05;56.81;105.38;;
57092;Laerm;42968;52.094;4.328;2022-10-17T13:15:53;72.51;57.65;86.54;;
57092;Laerm;42968;52.094;4.328;2022-10-17T13:18:23;72.09;50.91;87.32;;
57092;Laerm;42968;52.094;4.328;2022-10-17T13:20:55;70.33;49.36;81.76;;
57092;Laerm;42968;52.094;4.328;2022-10-17T13:23:22;70.87;53.53;80.16;;
57092;Laerm;42968;52.094;4.328;2022-10-17T13:25:58;70.16;49.18;78.31;;
57092;Laerm;42968;52.094;4.328;2022-10-17T13:28:25;73.03;58.91;86.93;;
57092;Laerm;42968;52.094;4.328;2022-10-17T13:30:55;71.35;53.65;85.01;;
57092;Laerm;42968;52.094;4.328;2022-10-17T13:33:31;71.91;49.75;82.93;;
57092;Laerm;42968;52.094;4.328;2022-10-17T13:35:56;71.34;53.31;83.26;;
57092;Laerm;42968;52.094;4.328;2022-10-17T13:38:23;72.43;52.47;82.88;;
57092;Laerm;42968;52.094;4.328;2022-10-17T13:40:50;71.52;52.47;78.39;;
57092;Laerm;42968;52.094;4.328;2022-10-17T13:43:16;72.39;58.39;82.13;;
57092;Laerm;42968;52.094;4.328;2022-10-17T13:45:44;71.77;52.50;84.37;;
57092;Laerm;42968;52.094;4.328;2022-10-17T13:48:17;70.28;54.86;83.15;;
57092;Laerm;42968;52.094;4.328;2022-10-17T13:50:43;71.15;55.78;79.48;;
57092;Laerm;42968;52.094;4.328;2022-10-17T13:55:36;71.41;59.42;80.95;;
57092;Laerm;42968;52.094;4.328;2022-10-17T13:58:09;71.48;52.02;82.07;;
57092;Laerm;42968;52.094;4.328;2022-10-17T14:00:34;70.35;52.07;79.79;;
57092;Laerm;42968;52.094;4.328;2022-10-17T14:02:59;71.60;51.42;82.79;;
57092;Laerm;42968;52.094;4.328;2022-10-17T14:05:25;71.73;52.04;78.43;;
57092;Laerm;42968;52.094;4.328;2022-10-17T14:08:00;70.57;58.41;77.46;;
57092;Laerm;42968;52.094;4.328;2022-10-17T14:10:34;71.12;57.87;77.96;;
57092;Laerm;42968;52.094;4.328;2022-10-17T14:13:01;69.50;55.73;77.30;;
57092;Laerm;42968;52.094;4.328;2022-10-17T14:15:30;70.67;57.96;78.73;;
57092;Laerm;42968;52.094;4.328;2022-10-17T14:18:03;70.88;49.92;82.49;;
57092;Laerm;42968;52.094;4.328;2022-10-17T14:20:29;71.43;50.39;81.16;;
57092;Laerm;42968;52.094;4.328;2022-10-17T14:22:55;71.97;56.86;80.15;;
57092;Laerm;42968;52.094;4.328;2022-10-17T14:25:27;71.72;56.39;83.85;;
57092;Laerm;42968;52.094;4.328;2022-10-17T14:27:54;72.57;54.99;81.42;;
57092;Laerm;42968;52.094;4.328;2022-10-17T14:32:55;71.41;59.38;77.76;;
57092;Laerm;42968;52.094;4.328;2022-10-17T14:35:21;70.56;59.71;79.63;;
57092;Laerm;42968;52.094;4.328;2022-10-17T14:37:47;71.86;51.87;80.42;;
57092;Laerm;42968;52.094;4.328;2022-10-17T14:40:14;72.31;48.84;82.16;;
57092;Laerm;42968;52.094;4.328;2022-10-17T14:42:40;69.98;49.90;77.14;;
57092;Laerm;42968;52.094;4.328;2022-10-17T14:45:06;70.26;56.75;81.91;;
57092;Laerm;42968;52.094;4.328;2022-10-17T14:47:32;71.22;58.56;78.44;;
57092;Laerm;42968;52.094;4.328;2022-10-17T14:50:06;70.83;50.28;80.16;;
57092;Laerm;42968;52.094;4.328;2022-10-17T14:52:32;72.55;52.60;84.69;;
57092;Laerm;42968;52.094;4.328;2022-10-17T14:54:59;70.19;52.96;79.12;;
57092;Laerm;42968;52.094;4.328;2022-10-17T14:57:25;71.40;51.91;82.21;;
57092;Laerm;42968;52.094;4.328;2022-10-17T14:59:52;72.17;49.50;80.79;;
57092;Laerm;42968;52.094;4.328;2022-10-17T15:02:18;71.47;51.10;79.91;;
57092;Laerm;42968;52.094;4.328;2022-10-17T15:04:43;70.19;49.93;78.88;;
57092;Laerm;42968;52.094;4.328;2022-10-17T15:07:13;72.34;55.89;81.69;;
57092;Laerm;42968;52.094;4.328;2022-10-17T15:09:39;71.22;49.58;81.07;;
57092;Laerm;42968;52.094;4.328;2022-10-17T15:12:06;71.37;57.32;78.41;;
57092;Laerm;42968;52.094;4.328;2022-10-17T15:14:31;71.17;57.75;79.18;;
57092;Laerm;42968;52.094;4.328;2022-10-17T15:16:57;71.99;56.61;82.50;;
57092;Laerm;42968;52.094;4.328;2022-10-17T15:19:22;71.93;61.23;80.84;;
57092;Laerm;42968;52.094;4.328;2022-10-17T15:21:48;71.40;54.79;79.95;;
57092;Laerm;42968;52.094;4.328;2022-10-17T15:24:13;70.62;52.29;78.88;;
57092;Laerm;42968;52.094;4.328;2022-10-17T15:26:39;72.04;50.82;80.17;;
57092;Laerm;42968;52.094;4.328;2022-10-17T15:29:05;72.16;50.48;88.85;;